CheckWX is a tool to help pilots better visualize weather data.  It is not intended as a substitute for an official pre-flight weather briefing.

08:05:15 UTC

CYIO TAF
Pond Inlet Airport
Pond Inlet, Canada
TAF CYIO 190638Z 1907/1919 15012KT P6SM SCT012 TEMPO 1907/1913 1SM IC HZ SCT008 BKN012 FM191300 21010KT P6SM FEW012 TEMPO 1913/1919 5SM IC BECMG 1914/1916 18006KT RMK FCST BASED ON AUTO OBS. NXT FCST BY 191300Z

Mar-19@
07:00 UTC

Mar-19 @ 07:00 UTC

Mar-19@
13:00 UTC

Mar-19 @ 13:00 UTC

TAF CYIO 190638Z 1907/1919 15012KT P6SM SCT012
Wind
  • 150° at 12 KTS
Cloud Levels
  • Scattered at 1,200' AGL

Mar-19@
07:00 UTC

Mar-19 @ 07:00 UTC

Mar-19@
13:00 UTC

Mar-19 @ 13:00 UTC

TEMPO 1907/1913 1SM IC HZ SCT008 BKN012

Temporary

Temporary Changes expected for less than half the time period

Conditions
Ice crystals, Haze
Cloud Levels
  • Scattered at 800' AGL
  • Broken at 1,200' AGL

Mar-19@
13:00 UTC

Mar-19 @ 13:00 UTC

Mar-19@
14:00 UTC

Mar-19 @ 14:00 UTC

FM191300 21010KT P6SM FEW012

From

From Standard forecast or significant change

Wind
  • 210° at 10 KTS
Cloud Levels
  • Few at 1,200' AGL

Mar-19@
13:00 UTC

Mar-19 @ 13:00 UTC

Mar-19@
19:00 UTC

Mar-19 @ 19:00 UTC

TEMPO 1913/1919 5SM IC

Temporary

Temporary Changes expected for less than half the time period

Conditions
Ice crystals

Mar-19@
14:00 UTC

Mar-19 @ 14:00 UTC

Mar-19@
19:00 UTC

Mar-19 @ 19:00 UTC

BECMG 1914/1916 18006KT RMK FCST BASED ON AUTO OBS. NXT FCST BY 191300Z

Becoming

Becoming Conditions expected by Tue, Mar 19, 2019 @ 16:00 UTC

Wind
  • 180° at 6 KTS
Cloud Levels
  • Few at 1,200' AGL